sensor_id;sensor_type;location;lat;lon;timestamp;temperature;humidity
20380;DHT22;10349;48.666;8.948;2023-06-10T00:00:41;16.20;99.90
20380;DHT22;10349;48.666;8.948;2023-06-10T00:03:07;16.30;99.90
20380;DHT22;10349;48.666;8.948;2023-06-10T00:05:34;16.30;99.90
20380;DHT22;10349;48.666;8.948;2023-06-10T00:08:01;16.30;99.90
20380;DHT22;10349;48.666;8.948;2023-06-10T00:10:36;16.30;99.90
20380;DHT22;10349;48.666;8.948;2023-06-10T00:13:03;16.20;99.90
20380;DHT22;10349;48.666;8.948;2023-06-10T00:15:29;16.20;99.90
20380;DHT22;10349;48.666;8.948;2023-06-10T00:17:55;16.30;99.90
20380;DHT22;10349;48.666;8.948;2023-06-10T00:20:21;16.20;99.90
20380;DHT22;10349;48.666;8.948;2023-06-10T00:22:49;16.20;99.90
20380;DHT22;10349;48.666;8.948;2023-06-10T00:25:15;16.10;99.90
20380;DHT22;10349;48.666;8.948;2023-06-10T00:27:41;16.10;99.90
20380;DHT22;10349;48.666;8.948;2023-06-10T00:30:07;16.10;99.90
20380;DHT22;10349;48.666;8.948;2023-06-10T00:32:36;16.10;99.90
20380;DHT22;10349;48.666;8.948;2023-06-10T00:35:03;15.90;99.90
20380;DHT22;10349;48.666;8.948;2023-06-10T00:37:30;15.80;99.90
20380;DHT22;10349;48.666;8.948;2023-06-10T00:39:57;15.70;99.90
20380;DHT22;10349;48.666;8.948;2023-06-10T00:42:24;15.70;99.90
20380;DHT22;10349;48.666;8.948;2023-06-10T00:44:50;15.70;99.90
20380;DHT22;10349;48.666;8.948;2023-06-10T00:47:16;15.70;99.90
20380;DHT22;10349;48.666;8.948;2023-06-10T00:49:43;15.60;99.90
20380;DHT22;10349;48.666;8.948;2023-06-10T00:52:09;15.60;99.90
20380;DHT22;10349;48.666;8.948;2023-06-10T00:54:37;15.60;99.90
20380;DHT22;10349;48.666;8.948;2023-06-10T00:57:03;15.60;99.90
20380;DHT22;10349;48.666;8.948;2023-06-10T00:59:29;15.70;99.90
20380;DHT22;10349;48.666;8.948;2023-06-10T01:01:57;15.70;99.90
20380;DHT22;10349;48.666;8.948;2023-06-10T01:04:23;15.70;99.90
20380;DHT22;10349;48.666;8.948;2023-06-10T01:07:20;15.70;99.90
20380;DHT22;10349;48.666;8.948;2023-06-10T01:10:14;15.70;99.90
20380;DHT22;10349;48.666;8.948;2023-06-10T01:12:46;15.60;99.90
20380;DHT22;10349;48.666;8.948;2023-06-10T01:15:17;15.50;99.90
20380;DHT22;10349;48.666;8.948;2023-06-10T01:18:02;15.50;99.90
20380;DHT22;10349;48.666;8.948;2023-06-10T01:20:31;15.50;99.90
20380;DHT22;10349;48.666;8.948;2023-06-10T01:23:01;15.40;99.90
20380;DHT22;10349;48.666;8.948;2023-06-10T01:25:29;15.30;99.90
20380;DHT22;10349;48.666;8.948;2023-06-10T01:28:07;15.20;99.90
20380;DHT22;10349;48.666;8.948;2023-06-10T01:30:51;15.20;99.90
20380;DHT22;10349;48.666;8.948;2023-06-10T01:33:27;15.10;99.90
20380;DHT22;10349;48.666;8.948;2023-06-10T01:35:57;15.10;99.90
20380;DHT22;10349;48.666;8.948;2023-06-10T01:38:23;15.10;99.90
20380;DHT22;10349;48.666;8.948;2023-06-10T01:40:53;15.10;99.90
20380;DHT22;10349;48.666;8.948;2023-06-10T01:43:20;15.10;99.90
20380;DHT22;10349;48.666;8.948;2023-06-10T01:45:46;15.10;99.90
20380;DHT22;10349;48.666;8.948;2023-06-10T01:48:11;15.10;99.90
20380;DHT22;10349;48.666;8.948;2023-06-10T01:50:37;15.10;99.90
20380;DHT22;10349;48.666;8.948;2023-06-10T01:53:04;15.10;99.90
20380;DHT22;10349;48.666;8.948;2023-06-10T01:55:31;15.10;99.90
20380;DHT22;10349;48.666;8.948;2023-06-10T01:57:56;15.00;99.90
20380;DHT22;10349;48.666;8.948;2023-06-10T02:00:23;15.00;99.90
20380;DHT22;10349;48.666;8.948;2023-06-10T02:02:48;14.90;99.90
20380;DHT22;10349;48.666;8.948;2023-06-10T02:05:14;14.90;99.90
20380;DHT22;10349;48.666;8.948;2023-06-10T02:07:41;14.90;99.90
20380;DHT22;10349;48.666;8.948;2023-06-10T02:10:07;14.90;99.90
20380;DHT22;10349;48.666;8.948;2023-06-10T02:12:33;14.90;99.90
20380;DHT22;10349;48.666;8.948;2023-06-10T02:14:59;14.90;99.90
20380;DHT22;10349;48.666;8.948;2023-06-10T02:17:25;14.70;99.90
20380;DHT22;10349;48.666;8.948;2023-06-10T02:19:52;14.70;99.90
20380;DHT22;10349;48.666;8.948;2023-06-10T02:22:22;14.70;99.90
20380;DHT22;10349;48.666;8.948;2023-06-10T02:24:48;14.70;99.90
20380;DHT22;10349;48.666;8.948;2023-06-10T02:27:17;14.60;99.90
20380;DHT22;10349;48.666;8.948;2023-06-10T02:29:43;14.60;99.90
20380;DHT22;10349;48.666;8.948;2023-06-10T02:32:10;14.50;99.90
20380;DHT22;10349;48.666;8.948;2023-06-10T02:34:36;14.50;99.90
20380;DHT22;10349;48.666;8.948;2023-06-10T02:37:03;14.30;99.90
20380;DHT22;10349;48.666;8.948;2023-06-10T02:39:30;14.30;99.90
20380;DHT22;10349;48.666;8.948;2023-06-10T02:41:56;14.30;99.90
20380;DHT22;10349;48.666;8.948;2023-06-10T02:44:21;14.30;99.90
20380;DHT22;10349;48.666;8.948;2023-06-10T02:46:48;14.40;99.90
20380;DHT22;10349;48.666;8.948;2023-06-10T02:49:14;14.30;99.90
20380;DHT22;10349;48.666;8.948;2023-06-10T02:51:39;14.30;99.90
20380;DHT22;10349;48.666;8.948;2023-06-10T02:54:06;14.20;99.90
20380;DHT22;10349;48.666;8.948;2023-06-10T02:56:32;13.90;99.90
20380;DHT22;10349;48.666;8.948;2023-06-10T02:59:01;13.80;99.90
20380;DHT22;10349;48.666;8.948;2023-06-10T03:01:28;13.70;99.90
20380;DHT22;10349;48.666;8.948;2023-06-10T03:03:59;13.60;99.90
20380;DHT22;10349;48.666;8.948;2023-06-10T03:06:26;13.60;99.90
20380;DHT22;10349;48.666;8.948;2023-06-10T03:08:57;13.60;99.90
20380;DHT22;10349;48.666;8.948;2023-06-10T03:11:22;13.50;99.90
20380;DHT22;10349;48.666;8.948;2023-06-10T03:13:49;13.40;99.90
20380;DHT22;10349;48.666;8.948;2023-06-10T03:16:17;13.40;99.90
20380;DHT22;10349;48.666;8.948;2023-06-10T03:18:43;13.40;99.90
20380;DHT22;10349;48.666;8.948;2023-06-10T03:21:09;13.40;99.90
20380;DHT22;10349;48.666;8.948;2023-06-10T03:23:36;13.50;99.90
20380;DHT22;10349;48.666;8.948;2023-06-10T03:26:02;13.50;99.90
20380;DHT22;10349;48.666;8.948;2023-06-10T03:28:29;13.50;99.90
20380;DHT22;10349;48.666;8.948;2023-06-10T03:30:55;13.40;99.90
20380;DHT22;10349;48.666;8.948;2023-06-10T03:33:23;13.40;99.90
20380;DHT22;10349;48.666;8.948;2023-06-10T03:35:49;13.30;99.90
20380;DHT22;10349;48.666;8.948;2023-06-10T03:38:16;13.30;99.90
20380;DHT22;10349;48.666;8.948;2023-06-10T03:40:42;13.30;99.90
20380;DHT22;10349;48.666;8.948;2023-06-10T03:43:09;13.30;99.90
20380;DHT22;10349;48.666;8.948;2023-06-10T03:45:35;13.20;99.90
20380;DHT22;10349;48.666;8.948;2023-06-10T03:48:02;13.30;99.90
20380;DHT22;10349;48.666;8.948;2023-06-10T03:50:37;13.40;99.90
20380;DHT22;10349;48.666;8.948;2023-06-10T03:53:03;13.40;99.90
20380;DHT22;10349;48.666;8.948;2023-06-10T03:55:30;13.40;99.90
20380;DHT22;10349;48.666;8.948;2023-06-10T03:57:58;13.40;99.90
20380;DHT22;10349;48.666;8.948;2023-06-10T04:00:24;13.30;99.90
20380;DHT22;10349;48.666;8.948;2023-06-10T04:02:50;13.30;99.90
20380;DHT22;10349;48.666;8.948;2023-06-10T04:05:43;13.30;99.90
20380;DHT22;10349;48.666;8.948;2023-06-10T04:08:09;13.30;99.90
20380;DHT22;10349;48.666;8.948;2023-06-10T04:10:35;13.30;99.90
20380;DHT22;10349;48.666;8.948;2023-06-10T04:13:01;13.30;99.90
20380;DHT22;10349;48.666;8.948;2023-06-10T04:15:31;13.30;99.90
20380;DHT22;10349;48.666;8.948;2023-06-10T04:18:04;13.40;99.90
20380;DHT22;10349;48.666;8.948;2023-06-10T04:20:30;13.50;99.90
20380;DHT22;10349;48.666;8.948;2023-06-10T04:22:56;13.60;99.90
20380;DHT22;10349;48.666;8.948;2023-06-10T04:25:22;13.70;99.90
20380;DHT22;10349;48.666;8.948;2023-06-10T04:27:49;14.00;99.90
20380;DHT22;10349;48.666;8.948;2023-06-10T04:30:16;14.40;99.90
20380;DHT22;10349;48.666;8.948;2023-06-10T04:32:42;14.90;99.90
20380;DHT22;10349;48.666;8.948;2023-06-10T04:35:14;15.40;99.90
20380;DHT22;10349;48.666;8.948;2023-06-10T04:37:40;15.80;99.90
20380;DHT22;10349;48.666;8.948;2023-06-10T04:40:07;16.20;99.90
20380;DHT22;10349;48.666;8.948;2023-06-10T04:42:34;16.40;99.90
20380;DHT22;10349;48.666;8.948;2023-06-10T04:45:00;16.70;99.90
20380;DHT22;10349;48.666;8.948;2023-06-10T04:47:26;16.90;99.90
20380;DHT22;10349;48.666;8.948;2023-06-10T04:49:52;17.10;99.90
20380;DHT22;10349;48.666;8.948;2023-06-10T04:52:18;17.60;99.90
20380;DHT22;10349;48.666;8.948;2023-06-10T04:54:44;18.00;99.90
20380;DHT22;10349;48.666;8.948;2023-06-10T04:57:09;18.40;99.90
20380;DHT22;10349;48.666;8.948;2023-06-10T04:59:37;18.80;99.90
20380;DHT22;10349;48.666;8.948;2023-06-10T05:02:06;19.30;99.90
20380;DHT22;10349;48.666;8.948;2023-06-10T05:04:32;19.70;99.90
20380;DHT22;10349;48.666;8.948;2023-06-10T05:06:58;20.00;99.90
20380;DHT22;10349;48.666;8.948;2023-06-10T05:09:24;20.40;99.90
20380;DHT22;10349;48.666;8.948;2023-06-10T05:11:49;20.70;99.90
20380;DHT22;10349;48.666;8.948;2023-06-10T05:14:15;21.20;99.90
20380;DHT22;10349;48.666;8.948;2023-06-10T05:16:42;21.70;99.90
20380;DHT22;10349;48.666;8.948;2023-06-10T05:19:08;22.00;99.90
20380;DHT22;10349;48.666;8.948;2023-06-10T05:21:34;22.30;99.90
20380;DHT22;10349;48.666;8.948;2023-06-10T05:24:00;22.50;99.90
20380;DHT22;10349;48.666;8.948;2023-06-10T05:26:25;22.60;99.90
20380;DHT22;10349;48.666;8.948;2023-06-10T05:28:52;22.70;99.90
20380;DHT22;10349;48.666;8.948;2023-06-10T05:31:18;22.80;99.90
20380;DHT22;10349;48.666;8.948;2023-06-10T05:33:44;23.20;99.90
20380;DHT22;10349;48.666;8.948;2023-06-10T05:36:09;23.30;99.90
20380;DHT22;10349;48.666;8.948;2023-06-10T05:38:35;23.80;99.90
20380;DHT22;10349;48.666;8.948;2023-06-10T05:41:07;24.10;99.90
20380;DHT22;10349;48.666;8.948;2023-06-10T05:43:32;24.40;99.90
20380;DHT22;10349;48.666;8.948;2023-06-10T05:45:58;24.80;99.90
20380;DHT22;10349;48.666;8.948;2023-06-10T05:48:24;24.90;99.90
20380;DHT22;10349;48.666;8.948;2023-06-10T05:50:50;25.10;99.90
20380;DHT22;10349;48.666;8.948;2023-06-10T05:53:15;25.30;99.90
20380;DHT22;10349;48.666;8.948;2023-06-10T05:55:45;25.50;99.90
20380;DHT22;10349;48.666;8.948;2023-06-10T05:58:11;25.60;99.90
20380;DHT22;10349;48.666;8.948;2023-06-10T06:00:41;25.70;99.90
20380;DHT22;10349;48.666;8.948;2023-06-10T06:03:10;25.60;99.90
20380;DHT22;10349;48.666;8.948;2023-06-10T06:05:36;25.60;99.90
20380;DHT22;10349;48.666;8.948;2023-06-10T06:08:04;25.70;99.90
20380;DHT22;10349;48.666;8.948;2023-06-10T06:10:30;25.80;99.90
20380;DHT22;10349;48.666;8.948;2023-06-10T06:12:55;25.60;99.90
20380;DHT22;10349;48.666;8.948;2023-06-10T06:15:21;25.50;99.90
20380;DHT22;10349;48.666;8.948;2023-06-10T06:17:48;25.30;99.90
20380;DHT22;10349;48.666;8.948;2023-06-10T06:20:13;25.30;99.90
20380;DHT22;10349;48.666;8.948;2023-06-10T06:22:39;25.20;99.90
20380;DHT22;10349;48.666;8.948;2023-06-10T06:25:05;25.20;99.90
20380;DHT22;10349;48.666;8.948;2023-06-10T06:27:31;25.50;99.90
20380;DHT22;10349;48.666;8.948;2023-06-10T06:29:57;25.60;99.90
20380;DHT22;10349;48.666;8.948;2023-06-10T06:32:24;25.70;99.90
20380;DHT22;10349;48.666;8.948;2023-06-10T06:34:51;26.00;99.90
20380;DHT22;10349;48.666;8.948;2023-06-10T06:37:22;25.80;99.90
20380;DHT22;10349;48.666;8.948;2023-06-10T06:39:51;25.80;99.90
20380;DHT22;10349;48.666;8.948;2023-06-10T06:42:17;25.80;99.90
20380;DHT22;10349;48.666;8.948;2023-06-10T06:45:02;25.90;99.90
20380;DHT22;10349;48.666;8.948;2023-06-10T06:47:27;25.80;99.90
20380;DHT22;10349;48.666;8.948;2023-06-10T06:49:53;25.60;99.90
20380;DHT22;10349;48.666;8.948;2023-06-10T06:52:19;25.50;99.90
20380;DHT22;10349;48.666;8.948;2023-06-10T06:54:44;25.20;99.90
20380;DHT22;10349;48.666;8.948;2023-06-10T06:57:10;24.70;99.90
20380;DHT22;10349;48.666;8.948;2023-06-10T06:59:36;24.90;99.90
20380;DHT22;10349;48.666;8.948;2023-06-10T07:02:03;25.30;99.90
20380;DHT22;10349;48.666;8.948;2023-06-10T07:04:29;24.90;99.90
20380;DHT22;10349;48.666;8.948;2023-06-10T07:06:55;24.80;99.90
20380;DHT22;10349;48.666;8.948;2023-06-10T07:09:21;25.00;99.90
20380;DHT22;10349;48.666;8.948;2023-06-10T07:11:48;25.10;99.90
20380;DHT22;10349;48.666;8.948;2023-06-10T07:14:13;25.00;99.90
20380;DHT22;10349;48.666;8.948;2023-06-10T07:16:39;24.90;99.90
20380;DHT22;10349;48.666;8.948;2023-06-10T07:19:06;25.00;99.90
20380;DHT22;10349;48.666;8.948;2023-06-10T07:21:32;25.10;99.90
20380;DHT22;10349;48.666;8.948;2023-06-10T07:23:59;24.80;99.90
20380;DHT22;10349;48.666;8.948;2023-06-10T07:26:25;24.60;99.90
20380;DHT22;10349;48.666;8.948;2023-06-10T07:28:51;24.60;99.90
20380;DHT22;10349;48.666;8.948;2023-06-10T07:31:17;24.40;99.90
20380;DHT22;10349;48.666;8.948;2023-06-10T07:33:42;24.40;99.90
20380;DHT22;10349;48.666;8.948;2023-06-10T07:36:09;24.40;99.90
20380;DHT22;10349;48.666;8.948;2023-06-10T07:38:35;24.60;99.90
20380;DHT22;10349;48.666;8.948;2023-06-10T07:41:01;24.70;99.90
20380;DHT22;10349;48.666;8.948;2023-06-10T07:43:29;24.70;99.90
20380;DHT22;10349;48.666;8.948;2023-06-10T07:45:54;24.70;99.90
20380;DHT22;10349;48.666;8.948;2023-06-10T07:48:20;24.60;99.90
20380;DHT22;10349;48.666;8.948;2023-06-10T07:50:45;24.30;99.90
20380;DHT22;10349;48.666;8.948;2023-06-10T07:53:11;23.80;99.90
20380;DHT22;10349;48.666;8.948;2023-06-10T07:55:37;23.40;99.90
20380;DHT22;10349;48.666;8.948;2023-06-10T07:58:02;23.10;99.90
20380;DHT22;10349;48.666;8.948;2023-06-10T08:00:28;23.10;99.90
20380;DHT22;10349;48.666;8.948;2023-06-10T08:02:54;23.10;99.90
20380;DHT22;10349;48.666;8.948;2023-06-10T08:05:19;23.20;99.90
20380;DHT22;10349;48.666;8.948;2023-06-10T08:07:46;23.30;99.90
20380;DHT22;10349;48.666;8.948;2023-06-10T08:10:12;23.40;99.90
20380;DHT22;10349;48.666;8.948;2023-06-10T08:12:38;23.60;99.90
20380;DHT22;10349;48.666;8.948;2023-06-10T08:15:04;23.90;99.90
20380;DHT22;10349;48.666;8.948;2023-06-10T08:17:30;24.10;99.90
20380;DHT22;10349;48.666;8.948;2023-06-10T08:19:56;24.30;99.90
20380;DHT22;10349;48.666;8.948;2023-06-10T08:22:21;24.30;99.90
20380;DHT22;10349;48.666;8.948;2023-06-10T08:24:47;24.20;99.90
20380;DHT22;10349;48.666;8.948;2023-06-10T08:27:13;24.10;99.90
20380;DHT22;10349;48.666;8.948;2023-06-10T08:29:39;24.10;99.90
20380;DHT22;10349;48.666;8.948;2023-06-10T08:32:05;24.10;99.90
20380;DHT22;10349;48.666;8.948;2023-06-10T08:34:34;23.90;99.90
20380;DHT22;10349;48.666;8.948;2023-06-10T08:37:03;23.70;99.90
20380;DHT22;10349;48.666;8.948;2023-06-10T08:39:29;23.80;99.90
20380;DHT22;10349;48.666;8.948;2023-06-10T08:44:31;24.10;99.90
20380;DHT22;10349;48.666;8.948;2023-06-10T08:47:00;24.30;99.90
20380;DHT22;10349;48.666;8.948;2023-06-10T08:49:29;24.30;99.90
20380;DHT22;10349;48.666;8.948;2023-06-10T08:51:59;24.50;99.90
20380;DHT22;10349;48.666;8.948;2023-06-10T08:54:31;24.40;99.90
20380;DHT22;10349;48.666;8.948;2023-06-10T08:56:57;24.30;99.90
20380;DHT22;10349;48.666;8.948;2023-06-10T08:59:25;24.30;99.90
20380;DHT22;10349;48.666;8.948;2023-06-10T09:01:52;24.30;99.90
20380;DHT22;10349;48.666;8.948;2023-06-10T09:04:18;24.30;99.90
20380;DHT22;10349;48.666;8.948;2023-06-10T09:06:45;24.40;99.90
20380;DHT22;10349;48.666;8.948;2023-06-10T09:09:12;24.60;99.90
20380;DHT22;10349;48.666;8.948;2023-06-10T09:11:39;24.80;99.90
20380;DHT22;10349;48.666;8.948;2023-06-10T09:14:06;24.90;99.90
20380;DHT22;10349;48.666;8.948;2023-06-10T09:16:31;24.80;99.90
20380;DHT22;10349;48.666;8.948;2023-06-10T09:18:57;24.50;99.90
20380;DHT22;10349;48.666;8.948;2023-06-10T09:21:24;24.30;99.90
20380;DHT22;10349;48.666;8.948;2023-06-10T09:23:50;24.40;99.90
20380;DHT22;10349;48.666;8.948;2023-06-10T09:26:17;24.40;99.90
20380;DHT22;10349;48.666;8.948;2023-06-10T09:28:49;24.40;99.90
20380;DHT22;10349;48.666;8.948;2023-06-10T09:31:17;24.40;99.90
20380;DHT22;10349;48.666;8.948;2023-06-10T09:33:47;24.50;99.90
20380;DHT22;10349;48.666;8.948;2023-06-10T09:36:22;24.60;99.90
20380;DHT22;10349;48.666;8.948;2023-06-10T09:38:49;24.70;99.90
20380;DHT22;10349;48.666;8.948;2023-06-10T09:41:16;24.90;99.90
20380;DHT22;10349;48.666;8.948;2023-06-10T09:43:43;25.10;99.90
20380;DHT22;10349;48.666;8.948;2023-06-10T09:46:20;25.40;99.90
20380;DHT22;10349;48.666;8.948;2023-06-10T09:48:47;25.60;99.90
20380;DHT22;10349;48.666;8.948;2023-06-10T09:51:14;25.80;99.90
20380;DHT22;10349;48.666;8.948;2023-06-10T09:53:40;25.90;99.90
20380;DHT22;10349;48.666;8.948;2023-06-10T09:56:06;26.10;99.90
20380;DHT22;10349;48.666;8.948;2023-06-10T09:58:39;25.90;99.90
20380;DHT22;10349;48.666;8.948;2023-06-10T10:01:12;25.80;99.90
20380;DHT22;10349;48.666;8.948;2023-06-10T10:03:49;25.80;99.90
20380;DHT22;10349;48.666;8.948;2023-06-10T10:06:16;25.70;99.90
20380;DHT22;10349;48.666;8.948;2023-06-10T10:08:43;25.40;99.90
20380;DHT22;10349;48.666;8.948;2023-06-10T10:11:10;25.00;99.90
20380;DHT22;10349;48.666;8.948;2023-06-10T10:13:37;24.50;99.90
20380;DHT22;10349;48.666;8.948;2023-06-10T10:16:11;24.40;99.90
20380;DHT22;10349;48.666;8.948;2023-06-10T10:18:39;24.60;99.90
20380;DHT22;10349;48.666;8.948;2023-06-10T10:21:12;24.70;99.90
20380;DHT22;10349;48.666;8.948;2023-06-10T10:23:50;25.00;99.90
20380;DHT22;10349;48.666;8.948;2023-06-10T10:26:18;25.40;99.90
20380;DHT22;10349;48.666;8.948;2023-06-10T10:28:53;25.40;99.90
20380;DHT22;10349;48.666;8.948;2023-06-10T10:31:23;25.60;99.90
20380;DHT22;10349;48.666;8.948;2023-06-10T10:33:55;26.00;99.90
20380;DHT22;10349;48.666;8.948;2023-06-10T10:36:23;26.50;99.90
20380;DHT22;10349;48.666;8.948;2023-06-10T10:38:49;26.70;99.90
20380;DHT22;10349;48.666;8.948;2023-06-10T10:41:15;26.90;99.90
20380;DHT22;10349;48.666;8.948;2023-06-10T10:43:43;27.00;99.90
20380;DHT22;10349;48.666;8.948;2023-06-10T10:46:15;27.30;99.90
20380;DHT22;10349;48.666;8.948;2023-06-10T10:48:41;27.10;99.90
20380;DHT22;10349;48.666;8.948;2023-06-10T10:51:08;26.80;99.90
20380;DHT22;10349;48.666;8.948;2023-06-10T10:53:37;26.40;99.90
20380;DHT22;10349;48.666;8.948;2023-06-10T10:56:18;26.30;99.90
20380;DHT22;10349;48.666;8.948;2023-06-10T10:59:03;26.30;99.90
20380;DHT22;10349;48.666;8.948;2023-06-10T11:01:40;26.40;99.90
20380;DHT22;10349;48.666;8.948;2023-06-10T11:04:08;26.80;99.90
20380;DHT22;10349;48.666;8.948;2023-06-10T11:06:37;26.70;99.90
20380;DHT22;10349;48.666;8.948;2023-06-10T11:09:26;26.40;99.90
20380;DHT22;10349;48.666;8.948;2023-06-10T11:11:56;25.70;99.90
20380;DHT22;10349;48.666;8.948;2023-06-10T11:14:29;25.90;99.90
20380;DHT22;10349;48.666;8.948;2023-06-10T11:16:59;25.70;99.90
20380;DHT22;10349;48.666;8.948;2023-06-10T11:19:44;25.70;99.90
20380;DHT22;10349;48.666;8.948;2023-06-10T11:22:16;25.90;99.90
20380;DHT22;10349;48.666;8.948;2023-06-10T11:24:48;26.00;99.90
20380;DHT22;10349;48.666;8.948;2023-06-10T11:27:24;26.30;99.90
20380;DHT22;10349;48.666;8.948;2023-06-10T11:32:35;26.50;99.90
20380;DHT22;10349;48.666;8.948;2023-06-10T11:35:06;26.40;99.90
20380;DHT22;10349;48.666;8.948;2023-06-10T11:37:32;26.30;99.90
20380;DHT22;10349;48.666;8.948;2023-06-10T11:39:58;26.30;99.90
20380;DHT22;10349;48.666;8.948;2023-06-10T11:42:25;26.10;99.90
20380;DHT22;10349;48.666;8.948;2023-06-10T11:44:52;26.20;99.90
20380;DHT22;10349;48.666;8.948;2023-06-10T11:47:18;26.10;99.90
20380;DHT22;10349;48.666;8.948;2023-06-10T11:49:44;26.20;99.90
20380;DHT22;10349;48.666;8.948;2023-06-10T11:52:11;26.30;99.90
20380;DHT22;10349;48.666;8.948;2023-06-10T11:54:37;26.60;99.90
20380;DHT22;10349;48.666;8.948;2023-06-10T11:57:03;26.40;99.90
20380;DHT22;10349;48.666;8.948;2023-06-10T11:59:30;26.10;99.90
20380;DHT22;10349;48.666;8.948;2023-06-10T12:01:56;26.00;99.90
20380;DHT22;10349;48.666;8.948;2023-06-10T12:04:22;26.00;99.90
20380;DHT22;10349;48.666;8.948;2023-06-10T12:06:52;25.90;99.90
20380;DHT22;10349;48.666;8.948;2023-06-10T12:09:23;25.70;99.90
20380;DHT22;10349;48.666;8.948;2023-06-10T12:11:59;25.80;99.90
20380;DHT22;10349;48.666;8.948;2023-06-10T12:14:54;25.70;99.90
20380;DHT22;10349;48.666;8.948;2023-06-10T12:17:22;25.80;99.90
20380;DHT22;10349;48.666;8.948;2023-06-10T12:19:49;26.00;99.90
20380;DHT22;10349;48.666;8.948;2023-06-10T12:22:15;25.90;99.90
20380;DHT22;10349;48.666;8.948;2023-06-10T12:24:45;25.70;99.90
20380;DHT22;10349;48.666;8.948;2023-06-10T12:27:12;25.90;99.90
20380;DHT22;10349;48.666;8.948;2023-06-10T12:29:38;25.90;99.90
20380;DHT22;10349;48.666;8.948;2023-06-10T12:32:04;25.90;99.90
20380;DHT22;10349;48.666;8.948;2023-06-10T12:34:39;26.00;99.90
20380;DHT22;10349;48.666;8.948;2023-06-10T12:37:10;26.00;99.90
20380;DHT22;10349;48.666;8.948;2023-06-10T12:39:39;26.00;99.90
20380;DHT22;10349;48.666;8.948;2023-06-10T12:42:06;26.20;99.90
20380;DHT22;10349;48.666;8.948;2023-06-10T12:44:38;26.30;99.90
20380;DHT22;10349;48.666;8.948;2023-06-10T12:47:09;26.50;99.90
20380;DHT22;10349;48.666;8.948;2023-06-10T12:49:36;26.60;99.90
20380;DHT22;10349;48.666;8.948;2023-06-10T12:52:02;26.60;99.90
20380;DHT22;10349;48.666;8.948;2023-06-10T12:54:28;26.70;99.90
20380;DHT22;10349;48.666;8.948;2023-06-10T12:56:53;26.90;99.90
20380;DHT22;10349;48.666;8.948;2023-06-10T12:59:20;26.80;99.90
20380;DHT22;10349;48.666;8.948;2023-06-10T13:01:55;26.70;99.90
20380;DHT22;10349;48.666;8.948;2023-06-10T13:04:21;26.50;99.90
20380;DHT22;10349;48.666;8.948;2023-06-10T13:06:48;26.50;99.90
20380;DHT22;10349;48.666;8.948;2023-06-10T13:09:15;26.30;99.90
20380;DHT22;10349;48.666;8.948;2023-06-10T13:11:41;26.10;99.90
20380;DHT22;10349;48.666;8.948;2023-06-10T13:14:11;26.00;99.90
20380;DHT22;10349;48.666;8.948;2023-06-10T13:16:39;26.00;99.90
20380;DHT22;10349;48.666;8.948;2023-06-10T13:19:05;26.10;99.90
20380;DHT22;10349;48.666;8.948;2023-06-10T13:21:32;26.10;99.90
20380;DHT22;10349;48.666;8.948;2023-06-10T13:24:00;26.20;99.90
20380;DHT22;10349;48.666;8.948;2023-06-10T13:26:26;26.30;99.90
20380;DHT22;10349;48.666;8.948;2023-06-10T13:28:53;26.60;99.90
20380;DHT22;10349;48.666;8.948;2023-06-10T13:31:19;26.50;99.90
20380;DHT22;10349;48.666;8.948;2023-06-10T13:33:46;26.70;99.90
20380;DHT22;10349;48.666;8.948;2023-06-10T13:36:12;26.70;99.90
20380;DHT22;10349;48.666;8.948;2023-06-10T13:38:38;26.60;99.90
20380;DHT22;10349;48.666;8.948;2023-06-10T13:41:04;26.40;99.90
20380;DHT22;10349;48.666;8.948;2023-06-10T13:43:29;26.10;99.90
20380;DHT22;10349;48.666;8.948;2023-06-10T13:45:55;26.00;99.90
20380;DHT22;10349;48.666;8.948;2023-06-10T13:48:21;25.70;99.90
20380;DHT22;10349;48.666;8.948;2023-06-10T13:50:47;25.70;99.90
20380;DHT22;10349;48.666;8.948;2023-06-10T13:53:12;25.80;99.90
20380;DHT22;10349;48.666;8.948;2023-06-10T13:55:38;26.00;99.90
20380;DHT22;10349;48.666;8.948;2023-06-10T13:58:04;26.20;99.90
20380;DHT22;10349;48.666;8.948;2023-06-10T14:00:30;26.30;99.90
20380;DHT22;10349;48.666;8.948;2023-06-10T14:02:56;26.50;99.90
20380;DHT22;10349;48.666;8.948;2023-06-10T14:05:22;26.80;99.90
20380;DHT22;10349;48.666;8.948;2023-06-10T14:07:49;26.80;99.90
20380;DHT22;10349;48.666;8.948;2023-06-10T14:10:15;26.90;99.90
20380;DHT22;10349;48.666;8.948;2023-06-10T14:12:41;27.00;99.90
20380;DHT22;10349;48.666;8.948;2023-06-10T14:15:07;27.00;99.90
20380;DHT22;10349;48.666;8.948;2023-06-10T14:17:33;27.00;99.90
20380;DHT22;10349;48.666;8.948;2023-06-10T14:19:59;27.00;99.90
20380;DHT22;10349;48.666;8.948;2023-06-10T14:22:25;27.10;99.90
20380;DHT22;10349;48.666;8.948;2023-06-10T14:24:50;27.20;99.90
20380;DHT22;10349;48.666;8.948;2023-06-10T14:27:16;27.40;99.90
20380;DHT22;10349;48.666;8.948;2023-06-10T14:29:42;27.20;99.90
20380;DHT22;10349;48.666;8.948;2023-06-10T14:32:07;26.80;99.90
20380;DHT22;10349;48.666;8.948;2023-06-10T14:34:34;26.40;99.90
20380;DHT22;10349;48.666;8.948;2023-06-10T14:37:00;26.30;99.90
20380;DHT22;10349;48.666;8.948;2023-06-10T14:39:26;26.20;99.90
20380;DHT22;10349;48.666;8.948;2023-06-10T14:41:52;26.10;99.90
20380;DHT22;10349;48.666;8.948;2023-06-10T14:44:20;26.00;99.90
20380;DHT22;10349;48.666;8.948;2023-06-10T14:46:45;26.00;99.90
20380;DHT22;10349;48.666;8.948;2023-06-10T14:49:11;26.20;99.90
20380;DHT22;10349;48.666;8.948;2023-06-10T14:51:37;26.50;99.90
20380;DHT22;10349;48.666;8.948;2023-06-10T14:54:02;26.60;99.90
20380;DHT22;10349;48.666;8.948;2023-06-10T14:56:28;26.70;99.90
20380;DHT22;10349;48.666;8.948;2023-06-10T14:58:54;26.80;99.90
20380;DHT22;10349;48.666;8.948;2023-06-10T15:01:20;26.90;99.90
20380;DHT22;10349;48.666;8.948;2023-06-10T15:03:46;27.00;99.90
20380;DHT22;10349;48.666;8.948;2023-06-10T15:06:11;27.10;99.90
20380;DHT22;10349;48.666;8.948;2023-06-10T15:08:37;27.10;99.90
20380;DHT22;10349;48.666;8.948;2023-06-10T15:11:03;27.20;99.90
20380;DHT22;10349;48.666;8.948;2023-06-10T15:13:29;27.40;99.90
20380;DHT22;10349;48.666;8.948;2023-06-10T15:15:55;27.40;99.90
20380;DHT22;10349;48.666;8.948;2023-06-10T15:18:21;27.50;99.90
20380;DHT22;10349;48.666;8.948;2023-06-10T15:20:47;27.60;99.90
20380;DHT22;10349;48.666;8.948;2023-06-10T15:23:12;27.60;99.90
20380;DHT22;10349;48.666;8.948;2023-06-10T15:25:38;27.60;99.90
20380;DHT22;10349;48.666;8.948;2023-06-10T15:28:06;27.80;99.90
20380;DHT22;10349;48.666;8.948;2023-06-10T15:30:32;27.90;99.90
20380;DHT22;10349;48.666;8.948;2023-06-10T15:32:58;28.00;99.90
20380;DHT22;10349;48.666;8.948;2023-06-10T15:35:24;28.10;99.90
20380;DHT22;10349;48.666;8.948;2023-06-10T15:37:53;28.00;99.90